createdAt,value
2023-05-05T00:01:36.676Z,66.49
2023-05-05T00:06:37.658Z,66.59
2023-05-05T00:11:38.668Z,66.52
2023-05-05T00:16:39.825Z,66.90
2023-05-05T00:21:40.820Z,67.22
2023-05-05T00:26:41.853Z,66.20
2023-05-05T00:31:42.964Z,66.25
2023-05-05T00:36:43.996Z,66.56
2023-05-05T00:41:45.021Z,67.16
2023-05-05T00:46:46.182Z,67.40
2023-05-05T00:51:47.266Z,68.26
2023-05-05T00:56:50.153Z,68.62
2023-05-05T01:01:51.437Z,69.43
2023-05-05T01:07:34.054Z,69.69
2023-05-05T01:12:46.042Z,70.41
2023-05-05T01:18:13.197Z,70.31
2023-05-05T01:23:26.530Z,69.81
2023-05-05T01:28:56.015Z,69.66
2023-05-05T01:34:03.512Z,70.07
2023-05-05T01:39:09.648Z,69.74
2023-05-05T01:44:13.985Z,69.98
2023-05-05T01:49:15.669Z,70.23
2023-05-05T01:54:18.575Z,70.10
2023-05-05T01:59:21.027Z,70.12
2023-05-05T02:04:23.582Z,69.68
2023-05-05T02:09:27.613Z,69.59
2023-05-05T02:14:29.141Z,69.28
2023-05-05T02:19:38.103Z,69.41
2023-05-05T02:24:39.152Z,69.23
2023-05-05T02:29:49.654Z,69.09
2023-05-05T02:34:52.758Z,69.26
2023-05-05T02:39:59.575Z,69.36
2023-05-05T02:45:09.343Z,69.82
2023-05-05T02:50:15.091Z,70.07
2023-05-05T02:55:21.961Z,70.31
2023-05-05T03:00:42.090Z,70.21
2023-05-05T03:05:59.982Z,70.93
2023-05-05T03:11:07.080Z,71.05
2023-05-05T03:16:10.885Z,71.58
2023-05-05T03:21:12.482Z,71.79
2023-05-05T03:26:17.806Z,71.50
2023-05-05T03:31:19.129Z,71.63
2023-05-05T03:36:39.104Z,71.40
2023-05-05T03:41:50.447Z,71.23
2023-05-05T03:46:52.687Z,70.66
2023-05-05T03:51:54.150Z,70.37
2023-05-05T03:56:55.614Z,70.08
2023-05-05T04:01:56.715Z,69.76
2023-05-05T04:06:57.984Z,69.20
2023-05-05T04:11:59.343Z,69.04
2023-05-05T04:17:00.647Z,69.03
2023-05-05T04:22:01.951Z,68.83
2023-05-05T04:27:03.933Z,68.92
2023-05-05T04:32:05.854Z,68.92
2023-05-05T04:37:06.943Z,68.73
2023-05-05T04:42:08.776Z,67.94
2023-05-05T04:47:11.471Z,67.32
2023-05-05T04:52:15.282Z,66.13
2023-05-05T04:57:16.397Z,65.62
2023-05-05T05:02:17.766Z,65.35
2023-05-05T05:07:18.869Z,64.64
2023-05-05T05:12:20.438Z,64.46
2023-05-05T05:17:23.085Z,64.15
2023-05-05T05:22:24.202Z,63.71
2023-05-05T05:27:25.406Z,63.11
2023-05-05T05:32:27.241Z,62.74
2023-05-05T05:37:30.310Z,62.38
2023-05-05T05:42:31.523Z,61.60
2023-05-05T05:47:33.268Z,60.77
2023-05-05T05:52:37.825Z,60.13
2023-05-05T05:57:39.602Z,58.99
2023-05-05T06:02:41.772Z,57.66
2023-05-05T06:07:45.749Z,57.45
2023-05-05T06:12:47.384Z,58.16
2023-05-05T06:17:48.694Z,57.47
2023-05-05T06:22:49.839Z,56.39
2023-05-05T06:27:51.629Z,57.37
2023-05-05T06:32:53.592Z,57.08
2023-05-05T06:37:54.616Z,56.55
2023-05-05T06:42:55.868Z,56.74
2023-05-05T06:48:00.953Z,57.07
2023-05-05T06:53:01.998Z,55.56
2023-05-05T06:58:02.961Z,53.97
2023-05-05T07:03:04.195Z,52.88
2023-05-05T07:08:05.860Z,51.91
2023-05-05T07:13:09.786Z,50.66
2023-05-05T07:18:12.660Z,48.85
2023-05-05T07:23:13.729Z,48.15
2023-05-05T07:28:14.820Z,47.48
2023-05-05T07:33:17.761Z,47.28
2023-05-05T07:38:18.802Z,46.27
2023-05-05T07:43:19.858Z,44.54
2023-05-05T07:48:20.935Z,44.06
2023-05-05T07:53:21.946Z,43.91
2023-05-05T07:58:23.007Z,41.35
2023-05-05T08:03:24.317Z,40.69
2023-05-05T08:08:26.260Z,40.20
2023-05-05T08:13:29.551Z,40.10
2023-05-05T08:18:30.697Z,40.50
2023-05-05T08:23:32.956Z,39.65
2023-05-05T08:28:35.692Z,37.37
2023-05-05T08:33:36.700Z,37.57
2023-05-05T08:38:37.695Z,38.18
2023-05-05T08:43:38.950Z,38.65
2023-05-05T08:48:42.614Z,38.27
2023-05-05T08:53:55.748Z,36.00
2023-05-05T08:58:57.095Z,35.26
2023-05-05T09:03:58.657Z,34.73
2023-05-05T09:09:00.658Z,34.56
2023-05-05T09:14:01.690Z,35.29
2023-05-05T09:19:04.159Z,35.14
2023-05-05T09:24:12.217Z,33.90
2023-05-05T09:29:20.330Z,32.96
2023-05-05T09:34:21.456Z,34.40
2023-05-05T09:39:22.560Z,32.64
2023-05-05T09:44:37.189Z,33.25
2023-05-05T09:49:38.434Z,33.31
2023-05-05T09:54:39.615Z,32.57
2023-05-05T10:00:01.705Z,31.52
2023-05-05T10:05:12.052Z,32.70
2023-05-05T10:10:15.492Z,32.48
2023-05-05T10:15:17.081Z,31.52
2023-05-05T10:20:20.439Z,32.37
2023-05-05T10:25:30.295Z,29.15
2023-05-05T10:30:34.592Z,29.80
2023-05-05T10:35:39.648Z,27.66
2023-05-05T10:40:45.151Z,29.61
2023-05-05T10:45:46.355Z,29.13
2023-05-05T10:50:52.985Z,29.34
2023-05-05T10:56:29.489Z,30.09
2023-05-05T11:01:32.338Z,30.46
2023-05-05T11:06:33.601Z,30.63
2023-05-05T11:12:04.516Z,29.16
2023-05-05T11:17:54.983Z,29.52
2023-05-05T11:23:02.257Z,29.08
2023-05-05T11:28:10.804Z,30.66
2023-05-05T11:33:37.461Z,29.47
2023-05-05T11:38:38.443Z,29.42
2023-05-05T11:43:41.034Z,30.43
2023-05-05T11:48:49.445Z,31.46
2023-05-05T11:53:50.485Z,30.24
2023-05-05T11:59:10.542Z,29.38
2023-05-05T12:04:13.078Z,29.14
2023-05-05T12:09:18.375Z,28.25
2023-05-05T12:14:20.043Z,27.81
2023-05-05T12:19:21.379Z,29.07
2023-05-05T12:24:22.441Z,29.44
2023-05-05T12:29:28.421Z,29.16
2023-05-05T12:34:30.614Z,28.90
2023-05-05T12:39:38.123Z,28.90
2023-05-05T12:44:40.126Z,28.42
2023-05-05T12:49:48.760Z,29.87
2023-05-05T12:54:56.380Z,28.05
2023-05-05T12:59:57.641Z,26.38
2023-05-05T13:04:58.664Z,26.56
2023-05-05T13:10:10.548Z,26.97
2023-05-05T13:15:11.826Z,28.31
2023-05-05T13:20:13.343Z,28.71
2023-05-05T13:25:14.480Z,28.45
2023-05-05T13:30:15.487Z,27.09
2023-05-05T13:35:16.811Z,27.21
2023-05-05T13:40:17.920Z,25.49
2023-05-05T13:45:19.062Z,26.26
2023-05-05T13:50:20.397Z,25.73
2023-05-05T13:55:21.475Z,25.01
2023-05-05T14:00:22.658Z,26.31
2023-05-05T14:05:23.647Z,26.30
2023-05-05T14:10:25.557Z,25.86
2023-05-05T14:15:26.987Z,24.92
2023-05-05T14:20:28.258Z,24.74
2023-05-05T14:25:30.486Z,24.49
2023-05-05T14:30:31.830Z,23.80
2023-05-05T14:35:32.837Z,25.08
2023-05-05T14:40:33.837Z,24.55
2023-05-05T14:45:34.817Z,24.25
2023-05-05T14:50:35.748Z,23.77
2023-05-05T14:55:37.201Z,23.68
2023-05-05T15:00:38.304Z,23.21
2023-05-05T15:05:39.401Z,23.34
2023-05-05T15:10:40.512Z,23.12
2023-05-05T15:15:41.678Z,24.19
2023-05-05T15:20:42.849Z,24.41
2023-05-05T15:25:43.971Z,24.09
2023-05-05T15:30:45.130Z,24.53
2023-05-05T15:35:46.159Z,25.46
2023-05-05T15:40:49.538Z,25.66
2023-05-05T15:45:53.254Z,25.71
2023-05-05T15:50:54.230Z,26.54
2023-05-05T15:55:55.223Z,27.21
2023-05-05T16:00:56.336Z,27.43
2023-05-05T16:05:57.399Z,27.86
2023-05-05T16:10:58.452Z,27.88
2023-05-05T16:15:59.547Z,27.73
2023-05-05T16:21:00.649Z,27.62
2023-05-05T16:26:03.358Z,27.97
2023-05-05T16:31:04.828Z,27.87
2023-05-05T16:36:14.683Z,28.36
2023-05-05T16:41:15.717Z,28.84
2023-05-05T16:46:16.867Z,29.63
2023-05-05T16:51:17.906Z,30.40
2023-05-05T16:56:18.880Z,30.87
2023-05-05T17:01:19.957Z,30.68
2023-05-05T17:06:21.298Z,30.90
2023-05-05T17:11:22.344Z,31.39
2023-05-05T17:16:23.391Z,31.72
2023-05-05T17:21:24.563Z,32.36
2023-05-05T17:26:25.545Z,32.30
2023-05-05T17:31:26.573Z,32.72
2023-05-05T17:36:27.739Z,33.36
2023-05-05T17:41:28.750Z,34.33
2023-05-05T17:46:29.936Z,35.15
2023-05-05T17:51:31.515Z,35.90
2023-05-05T17:56:34.042Z,36.83
2023-05-05T18:01:35.219Z,37.66
2023-05-05T18:06:36.191Z,38.26
2023-05-05T18:11:37.185Z,38.50
2023-05-05T18:16:38.259Z,38.54
2023-05-05T18:21:39.264Z,39.00
2023-05-05T18:26:40.749Z,39.63
2023-05-05T18:31:44.389Z,40.22
2023-05-05T18:36:46.273Z,40.51
2023-05-05T18:41:47.278Z,40.90
2023-05-05T18:46:48.296Z,41.29
2023-05-05T18:51:49.517Z,41.55
2023-05-05T18:56:50.481Z,41.77
2023-05-05T19:01:51.615Z,41.95
2023-05-05T19:06:52.855Z,42.37
2023-05-05T19:11:53.886Z,42.68
2023-05-05T19:16:55.273Z,42.73
2023-05-05T19:21:57.350Z,43.24
2023-05-05T19:26:58.501Z,43.75
2023-05-05T19:31:59.572Z,43.80
2023-05-05T19:37:00.687Z,44.33
2023-05-05T19:42:01.858Z,44.85
2023-05-05T19:47:04.400Z,45.43
2023-05-05T19:52:05.448Z,45.78
2023-05-05T19:57:06.606Z,46.14
2023-05-05T20:02:11.645Z,46.58
2023-05-05T20:07:12.693Z,46.72
2023-05-05T20:12:13.891Z,46.75
2023-05-05T20:17:19.181Z,47.05
2023-05-05T20:22:20.511Z,46.93
2023-05-05T20:27:21.582Z,46.86
2023-05-05T20:32:22.546Z,46.81
2023-05-05T20:37:26.238Z,46.68
2023-05-05T20:42:28.800Z,46.96
2023-05-05T20:47:30.017Z,47.08
2023-05-05T20:52:33.091Z,47.23
2023-05-05T20:57:34.210Z,47.57
2023-05-05T21:02:35.495Z,48.21
2023-05-05T21:07:37.368Z,48.71
2023-05-05T21:12:40.264Z,48.39
2023-05-05T21:17:45.715Z,48.79
2023-05-05T21:22:46.835Z,48.81
2023-05-05T21:27:48.343Z,49.17
2023-05-05T21:32:50.548Z,49.12
2023-05-05T21:37:51.642Z,49.14
2023-05-05T21:42:53.202Z,49.43
2023-05-05T21:47:58.901Z,49.69
2023-05-05T21:53:01.989Z,49.93
2023-05-05T21:58:02.937Z,50.32
2023-05-05T22:03:05.781Z,51.08
2023-05-05T22:08:07.450Z,51.77
2023-05-05T22:13:09.710Z,51.92
2023-05-05T22:18:10.740Z,52.21
2023-05-05T22:23:13.217Z,52.70
2023-05-05T22:28:24.267Z,53.06
2023-05-05T22:33:26.675Z,53.49
2023-05-05T22:38:28.331Z,53.47
2023-05-05T22:43:30.002Z,53.90
2023-05-05T22:48:31.738Z,54.37
2023-05-05T22:53:33.389Z,54.10
2023-05-05T22:58:36.039Z,54.41
2023-05-05T23:03:38.197Z,54.82
2023-05-05T23:08:41.950Z,54.84
2023-05-05T23:13:49.452Z,55.08
2023-05-05T23:18:51.172Z,55.56
2023-05-05T23:23:55.010Z,55.75
2023-05-05T23:28:56.897Z,55.93
2023-05-05T23:33:58.514Z,55.88
2023-05-05T23:39:01.766Z,56.26
2023-05-05T23:44:23.582Z,56.93
2023-05-05T23:49:26.823Z,57.60
2023-05-05T23:54:28.675Z,58.29
2023-05-05T23:59:30.683Z,58.73
